Atlantis — PCDT — position and weather

sailwx.info

Track history (hours):
 
Tides and Currents Weather Stations Pressure Air Temp Water Temp Dewpoint Dewpoint Depression Visibility Wind Speed Wind Dir Waves Ship Positions

Atlantis (Netherlands)

Ship's website: http://www.tallship-company.com/artemis/gb_atlantis.htm

Last reported at 2017-Apr-24 13:52 UTC. Time now 2017-Apr-26 19:36 UTC.
Position N 56°03' E 010°32'.

Length 40 m; draft 4.4 m.

Type: Sailing vessel. MMSI: 246253000.

Date/timePositionNaut miles runAvg speedWind from/ knotsBaromVisibWave heightAir tempDewpointWater temp
2017-Apr-24 13:52N 56°03' E 010°32'3 6.8
2017-Apr-24 13:28N 56°05' E 010°34'3 5.5
2017-Apr-24 13:00N 56°08' E 010°35'2 1.3
2017-Apr-24 11:19N 56°10' E 010°33'0 0.0
2017-Apr-24 10:58N 56°10' E 010°33'0 0.0
2017-Apr-24 10:07N 56°10' E 010°33'0 0.0
2017-Apr-24 09:58N 56°10' E 010°33'0 0.0
2017-Apr-24 09:28N 56°10' E 010°33'0 0.0
2017-Apr-24 08:58N 56°10' E 010°33'0 0.0
2017-Apr-24 08:28N 56°10' E 010°33'0 0.0
2017-Apr-24 07:58N 56°10' E 010°33'0 0.0
2017-Apr-24 07:28N 56°10' E 010°33'0 0.0
2017-Apr-24 06:52N 56°10' E 010°33'0 1.3
2017-Apr-24 06:30N 56°10' E 010°33'0 0.3
2017-Apr-24 05:57N 56°10' E 010°33'0 0.0
2017-Apr-24 05:30N 56°10' E 010°33'0 0.0
2017-Apr-24 05:00N 56°09' E 010°33'0 0.0
2017-Apr-24 04:27N 56°09' E 010°33'0 0.0
2017-Apr-24 04:00N 56°09' E 010°33'0 0.0
2017-Apr-24 03:21N 56°09' E 010°33'0 0.0
2017-Apr-24 02:57N 56°09' E 010°33'0 0.0
2017-Apr-24 02:30N 56°09' E 010°33'0 0.0
2017-Apr-24 02:00N 56°09' E 010°33'0 0.0
2017-Apr-24 01:24N 56°09' E 010°33'0 0.0
2017-Apr-24 00:57N 56°09' E 010°33'0 0.0
2017-Apr-24 00:30N 56°09' E 010°33'0 0.0
2017-Apr-24 00:00N 56°09' E 010°33'0 0.0
2017-Apr-23 23:27N 56°09' E 010°33'1 2.4
2017-Apr-23 23:00N 56°09' E 010°35'4 6.8
2017-Apr-23 22:29N 56°06' E 010°39'3 5.6
2017-Apr-23 21:59N 56°06' E 010°44'6 5.9
2017-Apr-23 21:01N 56°11' E 010°47'0 4.8
2017-Apr-23 21:00N 56°11' E 010°47'63 7.0
2017-Apr-23 12:03N 57°10' E 011°29'1 6.5
2017-Apr-23 11:58N 57°11' E 011°29'3 7.1
2017-Apr-23 11:30N 57°14' E 011°30'4 7.7
2017-Apr-23 10:58N 57°18' E 011°32'3 7.1
2017-Apr-23 10:30N 57°21' E 011°33'3 6.7
2017-Apr-23 10:00N 57°24' E 011°34'3 6.3
2017-Apr-23 09:30N 57°28' E 011°35'3 5.8
2017-Apr-23 09:00N 57°30' E 011°36'3 6.1
2017-Apr-23 08:30N 57°33' E 011°38'3 5.9
2017-Apr-23 08:00N 57°36' E 011°39'3 6.6
2017-Apr-23 07:30N 57°39' E 011°43'3 6.0
2017-Apr-23 07:00N 57°40' E 011°48'3 5.1
2017-Apr-23 06:30N 57°41' E 011°52'2 3.3
2017-Apr-23 05:59N 57°42' E 011°55'0 0.0
2017-Apr-23 05:29N 57°42' E 011°55'0 0.0
2017-Apr-23 04:59N 57°42' E 011°55'0 0.0
2017-Apr-23 04:29N 57°42' E 011°55'0 0.0
2017-Apr-23 03:59N 57°42' E 011°55'0 0.0
2017-Apr-23 03:29N 57°42' E 011°55'0 0.0
2017-Apr-23 02:59N 57°42' E 011°55'0 0.0
2017-Apr-23 02:29N 57°42' E 011°55'0 0.0
2017-Apr-23 01:59N 57°42' E 011°55'0 0.0
2017-Apr-23 01:29N 57°42' E 011°55'0 0.0
2017-Apr-23 00:59N 57°42' E 011°55'0 0.0
2017-Apr-23 00:29N 57°42' E 011°55'0 0.0
2017-Apr-22 23:59N 57°42' E 011°55'0 0.0
2017-Apr-22 23:29N 57°42' E 011°55'0 0.0
2017-Apr-22 22:59N 57°42' E 011°55'0 0.0
2017-Apr-22 22:29N 57°42' E 011°55'0 0.0
2017-Apr-22 21:59N 57°42' E 011°55'0 0.0
2017-Apr-22 21:29N 57°42' E 011°55'0 0.0
2017-Apr-22 20:59N 57°42' E 011°55'0 0.0
2017-Apr-22 20:29N 57°42' E 011°55'0 0.0
2017-Apr-22 19:59N 57°42' E 011°55'0 0.0
2017-Apr-22 19:29N 57°42' E 011°55'0 0.0
2017-Apr-22 18:59N 57°42' E 011°55'0 0.0
2017-Apr-22 18:29N 57°42' E 011°55'0 0.0
2017-Apr-22 17:59N 57°42' E 011°55'0 0.0
2017-Apr-22 17:29N 57°42' E 011°55'0 0.0
2017-Apr-22 16:59N 57°42' E 011°55'0 0.0
2017-Apr-22 16:29N 57°42' E 011°55'0 0.0
2017-Apr-22 15:59N 57°42' E 011°55'0 0.0
2017-Apr-22 15:29N 57°42' E 011°55'0 0.0
2017-Apr-22 14:59N 57°42' E 011°55'0 0.0
2017-Apr-22 14:29N 57°42' E 011°55'0 0.0
2017-Apr-22 13:29N 57°42' E 011°55'0 0.0
2017-Apr-22 12:59N 57°42' E 011°55'0 0.0
2017-Apr-22 12:29N 57°42' E 011°55'0 0.0
2017-Apr-22 11:59N 57°42' E 011°55'0 0.0
2017-Apr-22 11:29N 57°42' E 011°55'0 0.0
2017-Apr-22 10:59N 57°42' E 011°55'0 0.0
2017-Apr-22 10:29N 57°42' E 011°55'0 0.0
2017-Apr-22 09:59N 57°42' E 011°55'0 0.0
2017-Apr-22 09:29N 57°42' E 011°55'0 0.0
2017-Apr-22 08:59N 57°42' E 011°55'0 0.0
2017-Apr-22 08:29N 57°42' E 011°55'0 0.0
2017-Apr-22 07:59N 57°42' E 011°55'0 0.0
2017-Apr-22 07:29N 57°42' E 011°55'0 0.0
2017-Apr-22 06:59N 57°42' E 011°55'0 0.0
2017-Apr-22 06:29N 57°42' E 011°55'0 0.0
2017-Apr-22 05:59N 57°42' E 011°55'0 0.0
2017-Apr-22 05:29N 57°42' E 011°55'0 0.0
2017-Apr-22 04:59N 57°42' E 011°55'0 0.0
2017-Apr-22 04:29N 57°42' E 011°55'0 0.0
2017-Apr-22 04:01N 57°42' E 011°55'0 0.0
2017-Apr-22 03:30N 57°42' E 011°55'0 0.0
2017-Apr-22 03:00N 57°42' E 011°55'0 0.0
2017-Apr-22 02:30N 57°42' E 011°55'0 0.0
2017-Apr-22 02:00N 57°42' E 011°55'0 0.0
2017-Apr-22 01:30N 57°42' E 011°55'0 0.0
2017-Apr-22 01:00N 57°42' E 011°55'0 0.0
2017-Apr-22 00:30N 57°42' E 011°55'0 0.0
2017-Apr-22 00:00N 57°42' E 011°55'0 0.0
2017-Apr-21 23:30N 57°42' E 011°55'0 0.0
2017-Apr-21 23:00N 57°42' E 011°55'0 0.0
2017-Apr-21 22:30N 57°42' E 011°55'0 0.0
2017-Apr-21 22:00N 57°42' E 011°55'0 0.0
2017-Apr-21 21:30N 57°42' E 011°55'0 0.0
2017-Apr-21 21:00N 57°42' E 011°55'0 0.0
2017-Apr-21 20:30N 57°42' E 011°55'0 0.0
2017-Apr-21 19:59N 57°42' E 011°55'0 0.0
2017-Apr-21 19:29N 57°42' E 011°55'0 0.0
2017-Apr-21 18:59N 57°42' E 011°55'0 0.0
2017-Apr-21 18:29N 57°42' E 011°55'0 0.0
2017-Apr-21 17:59N 57°42' E 011°55'0 0.0
2017-Apr-21 17:30N 57°42' E 011°55'1 2.6
2017-Apr-21 17:00N 57°41' E 011°53'3 6.9
2017-Apr-21 16:30N 57°40' E 011°47'4 7.6
2017-Apr-21 16:00N 57°38' E 011°42'4 8.0
2017-Apr-21 15:30N 57°34' E 011°38'3 6.9
2017-Apr-21 15:00N 57°31' E 011°37'4 7.5
2017-Apr-21 14:30N 57°27' E 011°36'8 7.2
2017-Apr-21 13:28N 57°19' E 011°35'133 6.7
2017-Apr-20 17:31N 55°08' E 011°03'1 8.4
2017-Apr-20 17:24N 55°07' E 011°03'4 8.7
2017-Apr-20 16:59N 55°03' E 011°03'4 8.5
2017-Apr-20 16:30N 54°59' E 011°01'4 7.1
2017-Apr-20 16:00N 54°57' E 010°57'4 7.7
2017-Apr-20 15:30N 54°53' E 010°54'4 8.2
2017-Apr-20 15:00N 54°49' E 010°52'4 7.5
2017-Apr-20 14:30N 54°46' E 010°49'6 6.0
2017-Apr-20 13:29N 54°41' E 010°42'3 5.0
2017-Apr-20 12:58N 54°40' E 010°39'  
2017-Apr-16 18:42N 54°05' E 009°19'2 7.9
2017-Apr-16 18:29N 54°03' E 009°18'3 5.2
2017-Apr-16 18:00N 54°00' E 009°18'4 7.9
2017-Apr-16 17:30N 53°57' E 009°14'3 6.1
2017-Apr-16 17:01N 53°55' E 009°11'2 3.6
2017-Apr-16 16:30N 53°54' E 009°09'1 3.0
2017-Apr-16 16:01N 53°53' E 009°07'2 4.2
2017-Apr-16 15:30N 53°52' E 009°03'4 8.5
2017-Apr-16 15:01N 53°51' E 008°57'8 8.0
2017-Apr-16 14:00N 53°52' E 008°43'5 9.0
2017-Apr-16 13:30N 53°56' E 008°39'4 8.2
2017-Apr-16 13:00N 53°58' E 008°33'4 8.2
2017-Apr-16 12:30N 53°59' E 008°26'5 7.4
2017-Apr-16 11:53N 53°59' E 008°19'9 6.6
2017-Apr-16 10:36N 53°58' E 008°04'1 6.3
2017-Apr-16 10:28N 53°58' E 008°03'117 6.9
2017-Apr-15 17:35N 53°19' E 004°57'1 3.9
2017-Apr-15 17:27N 53°19' E 004°58'1 3.0
2017-Apr-15 16:59N 53°19' E 005°01'2 4.3
2017-Apr-15 16:30N 53°19' E 005°04'3 4.9
2017-Apr-15 15:59N 53°19' E 005°08'3 6.2
2017-Apr-15 15:30N 53°17' E 005°10'3 6.3
2017-Apr-15 15:00N 53°14' E 005°13'7 6.5
2017-Apr-15 14:00N 53°11' E 005°22'2 3.0
2017-Apr-15 13:29N 53°10' E 005°25'0 0.0
2017-Apr-15 12:59N 53°10' E 005°25'0 0.0
2017-Apr-15 12:29N 53°10' E 005°25'0 0.0
2017-Apr-15 11:59N 53°10' E 005°25'0 0.0
2017-Apr-15 11:29N 53°10' E 005°25'0 0.0
2017-Apr-15 10:59N 53°10' E 005°25'0 0.0
2017-Apr-15 10:29N 53°10' E 005°25'0 0.0
2017-Apr-15 09:59N 53°10' E 005°25'0 0.0
2017-Apr-15 09:29N 53°10' E 005°25'0 0.0
2017-Apr-15 08:59N 53°10' E 005°25'0 0.0
2017-Apr-15 08:29N 53°10' E 005°25'0 0.0
2017-Apr-15 07:59N 53°10' E 005°25'0 0.0
2017-Apr-15 07:29N 53°10' E 005°25'0 0.0
2017-Apr-15 06:59N 53°10' E 005°25'0 0.0
2017-Apr-15 06:29N 53°10' E 005°25'0 0.0
2017-Apr-15 05:59N 53°10' E 005°25'0 0.0
2017-Apr-15 05:29N 53°10' E 005°25'0 0.0
2017-Apr-15 04:59N 53°10' E 005°25'0 0.0
2017-Apr-15 04:29N 53°10' E 005°25'0 0.0
2017-Apr-15 03:59N 53°10' E 005°25'0 0.0
2017-Apr-15 03:29N 53°10' E 005°25'0 0.0
2017-Apr-15 02:59N 53°10' E 005°25'0 0.0
2017-Apr-15 02:29N 53°10' E 005°25'0 0.0
2017-Apr-15 01:59N 53°10' E 005°25'0 0.0
2017-Apr-15 01:29N 53°10' E 005°25'0 0.0
2017-Apr-15 00:59N 53°10' E 005°25'0 0.0
2017-Apr-15 00:29N 53°10' E 005°25'0 0.0
2017-Apr-14 23:59N 53°10' E 005°25'0 0.0
2017-Apr-14 23:29N 53°10' E 005°25'0 0.0
2017-Apr-14 22:59N 53°10' E 005°25'0 0.0
2017-Apr-14 22:29N 53°10' E 005°25'0 0.0
2017-Apr-14 21:59N 53°10' E 005°25'0 0.0
2017-Apr-14 21:29N 53°10' E 005°25'0 0.0
2017-Apr-14 20:53N 53°10' E 005°25'0 0.0
2017-Apr-14 20:29N 53°10' E 005°25'0 0.0
2017-Apr-14 19:59N 53°10' E 005°25'0 0.0
2017-Apr-14 19:29N 53°10' E 005°25'0 0.0
2017-Apr-14 18:59N 53°10' E 005°25'0 0.0
2017-Apr-14 18:29N 53°10' E 005°25'0 0.0
2017-Apr-14 17:59N 53°10' E 005°25'0 0.0
2017-Apr-14 17:29N 53°10' E 005°25'0 0.0
2017-Apr-14 16:59N 53°10' E 005°25'0 0.0
2017-Apr-14 16:29N 53°10' E 005°25'0 0.0
2017-Apr-14 15:59N 53°10' E 005°25'0 0.0
2017-Apr-14 15:29N 53°10' E 005°25'0 0.0
2017-Apr-14 14:59N 53°10' E 005°25'0 0.0
2017-Apr-14 13:59N 53°10' E 005°25'  
Track history (hours):
 
Tides and Currents Weather Stations Pressure Air Temp Water Temp Dewpoint Dewpoint Depression Visibility Wind Speed Wind Dir Waves Ship Positions

Atlantis (Netherlands)

Ship's website: http://www.tallship-company.com/artemis/gb_atlantis.htm

Last reported at 2017-Apr-24 13:52 UTC. Time now 2017-Apr-26 19:36 UTC.
Position N 56°03' E 010°32'.

Length 40 m; draft 4.4 m.

Type: Sailing vessel. MMSI: 246253000.

Date/timePositionNaut miles runAvg speedWind from/ knotsBaromVisibWave heightAir tempDewpointWater temp
2017-Apr-24 13:52N 56°03' E 010°32'3 6.8
2017-Apr-24 13:28N 56°05' E 010°34'3 5.5
2017-Apr-24 13:00N 56°08' E 010°35'2 1.3
2017-Apr-24 11:19N 56°10' E 010°33'0 0.0
2017-Apr-24 10:58N 56°10' E 010°33'0 0.0
2017-Apr-24 10:07N 56°10' E 010°33'0 0.0
2017-Apr-24 09:58N 56°10' E 010°33'0 0.0
2017-Apr-24 09:28N 56°10' E 010°33'0 0.0
2017-Apr-24 08:58N 56°10' E 010°33'0 0.0
2017-Apr-24 08:28N 56°10' E 010°33'0 0.0
2017-Apr-24 07:58N 56°10' E 010°33'0 0.0
2017-Apr-24 07:28N 56°10' E 010°33'0 0.0
2017-Apr-24 06:52N 56°10' E 010°33'0 1.3
2017-Apr-24 06:30N 56°10' E 010°33'0 0.3
2017-Apr-24 05:57N 56°10' E 010°33'0 0.0
2017-Apr-24 05:30N 56°10' E 010°33'0 0.0
2017-Apr-24 05:00N 56°09' E 010°33'0 0.0
2017-Apr-24 04:27N 56°09' E 010°33'0 0.0
2017-Apr-24 04:00N 56°09' E 010°33'0 0.0
2017-Apr-24 03:21N 56°09' E 010°33'0 0.0
2017-Apr-24 02:57N 56°09' E 010°33'0 0.0
2017-Apr-24 02:30N 56°09' E 010°33'0 0.0
2017-Apr-24 02:00N 56°09' E 010°33'0 0.0
2017-Apr-24 01:24N 56°09' E 010°33'0 0.0
2017-Apr-24 00:57N 56°09' E 010°33'0 0.0
2017-Apr-24 00:30N 56°09' E 010°33'0 0.0
2017-Apr-24 00:00N 56°09' E 010°33'0 0.0
2017-Apr-23 23:27N 56°09' E 010°33'1 2.4
2017-Apr-23 23:00N 56°09' E 010°35'4 6.8
2017-Apr-23 22:29N 56°06' E 010°39'3 5.6
2017-Apr-23 21:59N 56°06' E 010°44'6 5.9
2017-Apr-23 21:01N 56°11' E 010°47'0 4.8
2017-Apr-23 21:00N 56°11' E 010°47'63 7.0
2017-Apr-23 12:03N 57°10' E 011°29'1 6.5
2017-Apr-23 11:58N 57°11' E 011°29'3 7.1
2017-Apr-23 11:30N 57°14' E 011°30'4 7.7
2017-Apr-23 10:58N 57°18' E 011°32'3 7.1
2017-Apr-23 10:30N 57°21' E 011°33'3 6.7
2017-Apr-23 10:00N 57°24' E 011°34'3 6.3
2017-Apr-23 09:30N 57°28' E 011°35'3 5.8
2017-Apr-23 09:00N 57°30' E 011°36'3 6.1
2017-Apr-23 08:30N 57°33' E 011°38'3 5.9
2017-Apr-23 08:00N 57°36' E 011°39'3 6.6
2017-Apr-23 07:30N 57°39' E 011°43'3 6.0
2017-Apr-23 07:00N 57°40' E 011°48'3 5.1
2017-Apr-23 06:30N 57°41' E 011°52'2 3.3
2017-Apr-23 05:59N 57°42' E 011°55'0 0.0
2017-Apr-23 05:29N 57°42' E 011°55'0 0.0
2017-Apr-23 04:59N 57°42' E 011°55'0 0.0
2017-Apr-23 04:29N 57°42' E 011°55'0 0.0
2017-Apr-23 03:59N 57°42' E 011°55'0 0.0
2017-Apr-23 03:29N 57°42' E 011°55'0 0.0
2017-Apr-23 02:59N 57°42' E 011°55'0 0.0
2017-Apr-23 02:29N 57°42' E 011°55'0 0.0
2017-Apr-23 01:59N 57°42' E 011°55'0 0.0
2017-Apr-23 01:29N 57°42' E 011°55'0 0.0
2017-Apr-23 00:59N 57°42' E 011°55'0 0.0
2017-Apr-23 00:29N 57°42' E 011°55'0 0.0
2017-Apr-22 23:59N 57°42' E 011°55'0 0.0
2017-Apr-22 23:29N 57°42' E 011°55'0 0.0
2017-Apr-22 22:59N 57°42' E 011°55'0 0.0
2017-Apr-22 22:29N 57°42' E 011°55'0 0.0
2017-Apr-22 21:59N 57°42' E 011°55'0 0.0
2017-Apr-22 21:29N 57°42' E 011°55'0 0.0
2017-Apr-22 20:59N 57°42' E 011°55'0 0.0
2017-Apr-22 20:29N 57°42' E 011°55'0 0.0
2017-Apr-22 19:59N 57°42' E 011°55'0 0.0
2017-Apr-22 19:29N 57°42' E 011°55'0 0.0
2017-Apr-22 18:59N 57°42' E 011°55'0 0.0
2017-Apr-22 18:29N 57°42' E 011°55'0 0.0
2017-Apr-22 17:59N 57°42' E 011°55'0 0.0
2017-Apr-22 17:29N 57°42' E 011°55'0 0.0
2017-Apr-22 16:59N 57°42' E 011°55'0 0.0
2017-Apr-22 16:29N 57°42' E 011°55'0 0.0
2017-Apr-22 15:59N 57°42' E 011°55'0 0.0
2017-Apr-22 15:29N 57°42' E 011°55'0 0.0
2017-Apr-22 14:59N 57°42' E 011°55'0 0.0
2017-Apr-22 14:29N 57°42' E 011°55'0 0.0
2017-Apr-22 13:29N 57°42' E 011°55'0 0.0
2017-Apr-22 12:59N 57°42' E 011°55'0 0.0
2017-Apr-22 12:29N 57°42' E 011°55'0 0.0
2017-Apr-22 11:59N 57°42' E 011°55'0 0.0
2017-Apr-22 11:29N 57°42' E 011°55'0 0.0
2017-Apr-22 10:59N 57°42' E 011°55'0 0.0
2017-Apr-22 10:29N 57°42' E 011°55'0 0.0
2017-Apr-22 09:59N 57°42' E 011°55'0 0.0
2017-Apr-22 09:29N 57°42' E 011°55'0 0.0
2017-Apr-22 08:59N 57°42' E 011°55'0 0.0
2017-Apr-22 08:29N 57°42' E 011°55'0 0.0
2017-Apr-22 07:59N 57°42' E 011°55'0 0.0
2017-Apr-22 07:29N 57°42' E 011°55'0 0.0
2017-Apr-22 06:59N 57°42' E 011°55'0 0.0
2017-Apr-22 06:29N 57°42' E 011°55'0 0.0
2017-Apr-22 05:59N 57°42' E 011°55'0 0.0
2017-Apr-22 05:29N 57°42' E 011°55'0 0.0
2017-Apr-22 04:59N 57°42' E 011°55'0 0.0
2017-Apr-22 04:29N 57°42' E 011°55'0 0.0
2017-Apr-22 04:01N 57°42' E 011°55'0 0.0
2017-Apr-22 03:30N 57°42' E 011°55'0 0.0
2017-Apr-22 03:00N 57°42' E 011°55'0 0.0
2017-Apr-22 02:30N 57°42' E 011°55'0 0.0
2017-Apr-22 02:00N 57°42' E 011°55'0 0.0
2017-Apr-22 01:30N 57°42' E 011°55'0 0.0
2017-Apr-22 01:00N 57°42' E 011°55'0 0.0
2017-Apr-22 00:30N 57°42' E 011°55'0 0.0
2017-Apr-22 00:00N 57°42' E 011°55'0 0.0
2017-Apr-21 23:30N 57°42' E 011°55'0 0.0
2017-Apr-21 23:00N 57°42' E 011°55'0 0.0
2017-Apr-21 22:30N 57°42' E 011°55'0 0.0
2017-Apr-21 22:00N 57°42' E 011°55'0 0.0
2017-Apr-21 21:30N 57°42' E 011°55'0 0.0
2017-Apr-21 21:00N 57°42' E 011°55'0 0.0
2017-Apr-21 20:30N 57°42' E 011°55'0 0.0
2017-Apr-21 19:59N 57°42' E 011°55'0 0.0
2017-Apr-21 19:29N 57°42' E 011°55'0 0.0
2017-Apr-21 18:59N 57°42' E 011°55'0 0.0
2017-Apr-21 18:29N 57°42' E 011°55'0 0.0
2017-Apr-21 17:59N 57°42' E 011°55'0 0.0
2017-Apr-21 17:30N 57°42' E 011°55'1 2.6
2017-Apr-21 17:00N 57°41' E 011°53'3 6.9
2017-Apr-21 16:30N 57°40' E 011°47'4 7.6
2017-Apr-21 16:00N 57°38' E 011°42'4 8.0
2017-Apr-21 15:30N 57°34' E 011°38'3 6.9
2017-Apr-21 15:00N 57°31' E 011°37'4 7.5
2017-Apr-21 14:30N 57°27' E 011°36'8 7.2
2017-Apr-21 13:28N 57°19' E 011°35'133 6.7
2017-Apr-20 17:31N 55°08' E 011°03'1 8.4
2017-Apr-20 17:24N 55°07' E 011°03'4 8.7
2017-Apr-20 16:59N 55°03' E 011°03'4 8.5
2017-Apr-20 16:30N 54°59' E 011°01'4 7.1
2017-Apr-20 16:00N 54°57' E 010°57'4 7.7
2017-Apr-20 15:30N 54°53' E 010°54'4 8.2
2017-Apr-20 15:00N 54°49' E 010°52'4 7.5
2017-Apr-20 14:30N 54°46' E 010°49'6 6.0
2017-Apr-20 13:29N 54°41' E 010°42'3 5.0
2017-Apr-20 12:58N 54°40' E 010°39'  
2017-Apr-16 18:42N 54°05' E 009°19'2 7.9
2017-Apr-16 18:29N 54°03' E 009°18'3 5.2
2017-Apr-16 18:00N 54°00' E 009°18'4 7.9
2017-Apr-16 17:30N 53°57' E 009°14'3 6.1
2017-Apr-16 17:01N 53°55' E 009°11'2 3.6
2017-Apr-16 16:30N 53°54' E 009°09'1 3.0
2017-Apr-16 16:01N 53°53' E 009°07'2 4.2
2017-Apr-16 15:30N 53°52' E 009°03'4 8.5
2017-Apr-16 15:01N 53°51' E 008°57'8 8.0
2017-Apr-16 14:00N 53°52' E 008°43'5 9.0
2017-Apr-16 13:30N 53°56' E 008°39'4 8.2
2017-Apr-16 13:00N 53°58' E 008°33'4 8.2
2017-Apr-16 12:30N 53°59' E 008°26'5 7.4
2017-Apr-16 11:53N 53°59' E 008°19'9 6.6
2017-Apr-16 10:36N 53°58' E 008°04'1 6.3
2017-Apr-16 10:28N 53°58' E 008°03'117 6.9
2017-Apr-15 17:35N 53°19' E 004°57'1 3.9
2017-Apr-15 17:27N 53°19' E 004°58'1 3.0
2017-Apr-15 16:59N 53°19' E 005°01'2 4.3
2017-Apr-15 16:30N 53°19' E 005°04'3 4.9
2017-Apr-15 15:59N 53°19' E 005°08'3 6.2
2017-Apr-15 15:30N 53°17' E 005°10'3 6.3
2017-Apr-15 15:00N 53°14' E 005°13'7 6.5
2017-Apr-15 14:00N 53°11' E 005°22'2 3.0
2017-Apr-15 13:29N 53°10' E 005°25'0 0.0
2017-Apr-15 12:59N 53°10' E 005°25'0 0.0
2017-Apr-15 12:29N 53°10' E 005°25'0 0.0
2017-Apr-15 11:59N 53°10' E 005°25'0 0.0
2017-Apr-15 11:29N 53°10' E 005°25'0 0.0
2017-Apr-15 10:59N 53°10' E 005°25'0 0.0
2017-Apr-15 10:29N 53°10' E 005°25'0 0.0
2017-Apr-15 09:59N 53°10' E 005°25'0 0.0
2017-Apr-15 09:29N 53°10' E 005°25'0 0.0
2017-Apr-15 08:59N 53°10' E 005°25'0 0.0
2017-Apr-15 08:29N 53°10' E 005°25'0 0.0
2017-Apr-15 07:59N 53°10' E 005°25'0 0.0
2017-Apr-15 07:29N 53°10' E 005°25'0 0.0
2017-Apr-15 06:59N 53°10' E 005°25'0 0.0
2017-Apr-15 06:29N 53°10' E 005°25'0 0.0
2017-Apr-15 05:59N 53°10' E 005°25'0 0.0
2017-Apr-15 05:29N 53°10' E 005°25'0 0.0
2017-Apr-15 04:59N 53°10' E 005°25'0 0.0
2017-Apr-15 04:29N 53°10' E 005°25'0 0.0
2017-Apr-15 03:59N 53°10' E 005°25'0 0.0
2017-Apr-15 03:29N 53°10' E 005°25'0 0.0
2017-Apr-15 02:59N 53°10' E 005°25'0 0.0
2017-Apr-15 02:29N 53°10' E 005°25'0 0.0
2017-Apr-15 01:59N 53°10' E 005°25'0 0.0
2017-Apr-15 01:29N 53°10' E 005°25'0 0.0
2017-Apr-15 00:59N 53°10' E 005°25'0 0.0
2017-Apr-15 00:29N 53°10' E 005°25'0 0.0
2017-Apr-14 23:59N 53°10' E 005°25'0 0.0
2017-Apr-14 23:29N 53°10' E 005°25'0 0.0
2017-Apr-14 22:59N 53°10' E 005°25'0 0.0
2017-Apr-14 22:29N 53°10' E 005°25'0 0.0
2017-Apr-14 21:59N 53°10' E 005°25'0 0.0
2017-Apr-14 21:29N 53°10' E 005°25'0 0.0
2017-Apr-14 20:53N 53°10' E 005°25'0 0.0
2017-Apr-14 20:29N 53°10' E 005°25'0 0.0
2017-Apr-14 19:59N 53°10' E 005°25'0 0.0
2017-Apr-14 19:29N 53°10' E 005°25'0 0.0
2017-Apr-14 18:59N 53°10' E 005°25'0 0.0
2017-Apr-14 18:29N 53°10' E 005°25'0 0.0
2017-Apr-14 17:59N 53°10' E 005°25'0 0.0
2017-Apr-14 17:29N 53°10' E 005°25'0 0.0
2017-Apr-14 16:59N 53°10' E 005°25'0 0.0
2017-Apr-14 16:29N 53°10' E 005°25'0 0.0
2017-Apr-14 15:59N 53°10' E 005°25'0 0.0
2017-Apr-14 15:29N 53°10' E 005°25'0 0.0
2017-Apr-14 14:59N 53°10' E 005°25'0 0.0
2017-Apr-14 13:59N 53°10' E 005°25'  

Dump ship's entire track history